Aérodrome :
LOGIN :

S'inscrire | Disclaimer

   EN    FR    IT 

 










Légende :    VFR   VFR Marginal   IFR   IFR Intensif   IFR Très Intensif
Visi : 
Plafond : 
>= 8 km
>= 3000ft
5 à 8 km
1000 à 3000 ft
1500m à 5 km
500 à 1000 ft
800 à 1500m
200 à 500 ft
< 800m
< 200 ft
Symboles :   Orages  Brouillard  Fortes neiges  Fortes précipitations  Vent > 20 kt
SIGMETs :   Divers  Orages  Givrage  Turbulence  Onde Orograph.  Cendres Volcan.







- Altitude de l'aérodrome : 194 ft
- Code IATA : LME
- Voir les cartes d'approche


LFRM - Le Mans

DERNIER METAR :
  • 140400Z AUTO 24009KT 200V260 9999 FEW038 07/03 Q1006

METARs EXPIRÉS :
  • 140330Z AUTO 25010KT 210V300 CAVOK 07/02 Q1006
  • 140300Z AUTO 25010KT 210V290 CAVOK 07/02 Q1006
  • 140230Z AUTO 26009KT 220V290 9999 FEW041 07/02 Q1006
  • 140200Z AUTO 26011KT 230V290 9999 SCT041 BKN048 08/02 Q1006
  • 140130Z AUTO 26011KT 210V290 9999 BKN041 OVC050 08/03 Q1005

Prévision TAF périmée.
Pas de NOTAMs connus pour ce terrain.
2 SIGMETs publiés pour la FIR Paris (LFFF) :
 
Turbulence forte
LFFF SIGMET 3 VALID 140350/140700 LFPW
LFFF PARIS FIR/UIR SEV TURB OBS WI N4945 W00015 - N5000 W00015 - N5115 E00200 - N5100 E00230 - N5015 E00130 - N4945 W00015 SFC/FL050 STNR WKN=
Turbulence forte
LFFF SIGMET 2 VALID 140300/140400 LFPW
LFFF PARIS FIR/UIR SEV TURB FCST WI N4945 E00515 - N4930 E00600 - N4900 E00445 - N4830 E00530 - N4745 E00445 - N4815 E00430 - N4945 E00515 SFC/FL070 MOV E 45KT NC=



MET'MAP, la Météo Aéronautique d'un coup d'oeil ! - Copyright ORBIFLY Décembre 2007 - Disclaimer

ORBIFLY MET'MAP TEAM :

Programmation & Développement : Alexandra Zaïnal
Conception & Développement : Baudouin d'Aumeries
Co-Programmation & Développement : Marc-Olivier Méhu
Soutien technique & logistique : Manuel Goepfert

Contact : metmap@orbifly.com




SOURCES & CREDITS :

   NOAA